Date,TemperatureHighF,TemperatureAvgF,TemperatureLowF,DewpointHighF,DewpointAvgF,DewpointLowF,HumidityHigh,HumidityAvg,HumidityLow,PressureMaxIn,PressureMinIn,WindSpeedMaxMPH,WindSpeedAvgMPH,GustSpeedMaxMPH,PrecipitationSumIn
2014-1-1,24.7,19.1,12.9,13.0,8.6,5.2,80,64,49,30.40,30.22,17,3,22,0.00
2014-1-2,19.0,10.4,0.1,15.2,7.6,-3.0,90,88,77,30.37,29.84,17,6,17,0.00
2014-1-3,8.9,3.3,-1.6,5.9,0.1,-5.2,89,86,82,30.44,29.74,22,6,22,0.00
2014-1-4,22.7,11.0,-2.4,17.6,6.9,-6.0,87,83,76,30.53,30.32,15,3,15,0.00
2014-1-5,34.3,27.4,16.8,33.4,24.3,14.0,97,88,75,30.35,29.94,13,2,15,0.17
2014-1-6,55.4,39.2,23.1,55.1,37.5,14.8,99,93,70,29.95,29.33,30,4,30,0.68
2014-1-7,23.1,9.0,3.8,16.6,-3.3,-9.5,83,57,44,30.26,29.52,29,7,29,0.00
2014-1-8,16.7,10.1,3.2,4.9,-0.1,-7.0,72,63,54,30.50,30.24,15,3,15,0.00
2014-1-9,27.0,17.5,10.6,10.6,7.6,4.3,81,66,46,30.67,30.46,16,2,16,0.00
2014-1-10,34.1,26.5,11.4,33.1,24.2,7.8,97,91,79,30.62,30.28,10,1,10,0.04
2014-1-11,56.7,48.2,33.9,56.4,47.8,33.1,99,98,97,30.29,29.29,21,3,21,0.42
2014-1-12,51.2,39.4,32.8,50.7,31.8,24.7,98,74,62,29.98,29.30,32,7,32,0.06
2014-1-13,48.9,38.7,29.3,39.9,30.4,24.2,85,73,52,30.14,29.91,20,3,20,0.00
2014-1-14,44.7,43.4,40.1,43.4,41.6,38.7,97,93,83,29.92,29.63,18,2,18,0.74
2014-1-15,44.9,36.5,28.9,38.8,33.4,27.6,97,89,67,30.02,29.78,13,1,14,0.01
2014-1-16,37.7,35.0,31.1,35.9,33.7,29.8,98,95,89,29.94,29.86,7,1,7,0.00
2014-1-17,41.2,34.0,29.2,34.3,28.3,24.8,97,81,54,30.00,29.92,7,1,11,0.01
2014-1-18,32.5,31.1,29.6,31.5,29.8,26.8,96,95,89,29.93,29.64,5,0,5,0.00
2014-1-19,30.7,27.3,24.5,29.7,24.1,21.0,96,88,78,29.75,29.56,16,2,16,0.00
2014-1-20,38.2,31.3,19.6,30.4,23.5,6.2,88,73,55,29.90,29.52,23,5,23,0.09
2014-1-21,19.4,12.0,7.3,6.4,3.4,-1.3,88,69,48,30.05,29.89,14,3,14,0.00
2014-1-22,12.7,7.7,2.7,4.4,-2.0,-6.7,87,65,48,29.92,29.69,18,6,19,0.00
2014-1-23,15.7,7.9,1.6,0.8,-3.7,-7.5,70,59,45,30.19,29.92,20,4,20,0.00
2014-1-24,13.7,8.1,2.4,0.0,-3.1,-6.7,71,60,43,30.29,30.07,22,4,22,0.00
2014-1-25,31.9,21.2,8.6,24.2,14.3,-0.4,90,75,60,30.07,29.36,22,3,22,0.00
2014-1-26,19.9,14.8,9.6,16.4,4.7,-3.3,87,64,48,29.89,29.37,26,5,26,0.00
2014-1-27,40.2,25.9,15.2,35.0,17.6,-0.1,94,72,41,30.01,29.58,20,4,20,0.16
2014-1-28,15.2,11.7,6.8,0.3,-4.6,-10.3,57,47,39,30.33,30.01,23,4,23,0.00
2014-1-29,21.1,15.2,10.5,5.3,-0.8,-6.4,78,50,32,30.26,30.01,19,3,19,0.00
2014-1-30,26.4,16.8,5.0,12.9,3.8,-3.2,83,57,40,30.46,30.19,16,2,16,0.00
2014-1-31,36.9,29.4,17.2,24.4,17.5,9.4,92,63,42,30.24,30.05,20,3,20,0.00
2014-2-1,43.6,35.0,28.5,31.3,23.9,19.6,90,65,49,30.36,30.04,11,2,11,0.00
2014-2-2,49.7,39.9,33.7,39.9,35.6,31.1,95,85,61,30.08,29.88,18,3,18,0.05
2014-2-3,35.7,28.9,21.2,31.4,25.5,19.2,94,87,72,30.31,30.07,10,2,10,0.00
2014-2-4,31.3,25.6,19.4,22.6,19.3,15.1,91,77,65,30.48,30.30,8,2,8,0.07
2014-2-5,27.0,24.4,21.8,24.4,22.2,19.6,95,91,83,30.34,29.66,15,4,15,0.00
2014-2-6,24.7,18.5,13.2,19.9,12.0,7.6,92,76,54,30.29,29.97,11,2,11,0.00
2014-2-7,27.0,17.6,7.8,12.3,8.6,3.3,85,68,49,30.29,30.19,22,2,22,0.01
2014-2-8,25.3,18.3,9.7,8.9,4.1,1.1,81,55,40,30.32,30.15,14,3,16,0.00
2014-2-9,28.2,22.6,15.7,19.6,12.2,4.1,90,65,49,30.19,29.96,10,2,10,0.01
2014-2-10,24.5,18.6,10.4,18.4,10.8,3.8,91,72,52,30.24,29.93,15,3,15,0.00
2014-2-11,21.0,12.8,3.5,7.3,3.7,0.3,89,68,47,30.47,30.23,20,4,20,0.00
2014-2-12,24.3,16.2,3.1,9.4,0.8,-4.5,73,52,33,30.59,30.42,13,2,13,0.00
2014-2-13,31.5,23.7,16.5,30.6,21.3,9.4,97,90,73,30.42,29.02,18,6,22,0.00
2014-2-14,31.7,28.4,24.6,31.0,27.5,23.2,98,96,95,29.76,28.89,31,3,31,0.00
2014-2-15,28.4,25.7,21.7,27.4,24.6,20.5,97,96,95,29.87,29.54,20,3,20,0.00
2014-2-16,26.9,21.0,16.4,25.9,18.3,12.9,96,89,85,30.01,29.54,26,6,26,0.00
2014-2-17,24.7,16.2,8.9,15.4,8.1,-0.8,87,71,50,30.40,30.01,18,4,18,0.00
2014-2-18,26.9,17.5,6.4,25.7,12.8,-2.1,95,82,62,30.38,29.95,14,3,14,0.00
2014-2-19,33.1,25.9,15.2,30.3,23.7,13.3,96,91,75,30.15,29.76,12,2,12,0.01
2014-2-20,45.7,35.8,27.4,32.5,28.4,22.1,96,77,41,30.23,29.90,16,2,16,0.46
2014-2-21,38.9,34.8,32.1,38.4,34.2,31.2,98,98,96,30.16,29.71,15,4,15,0.26
2014-2-22,48.3,38.5,29.9,33.6,28.4,23.3,98,70,38,30.00,29.87,19,2,19,0.01
2014-2-23,41.8,36.3,31.9,29.0,25.6,22.6,77,65,49,30.01,29.98,11,2,11,0.00
2014-2-24,31.5,25.7,19.9,15.8,10.9,6.0,69,53,42,29.96,29.77,28,8,28,0.00
2014-2-25,24.6,19.1,14.4,11.3,8.3,4.9,74,62,52,30.01,29.90,15,4,20,0.00
2014-2-26,26.2,15.8,5.9,12.1,3.0,-7.9,83,58,34,29.97,29.79,23,3,23,0.00
2014-2-27,26.0,14.8,5.4,19.2,2.6,-6.1,85,58,40,29.96,29.62,25,3,25,0.00
2014-2-28,19.5,11.2,3.5,-4.1,-7.2,-11.8,66,44,26,30.47,29.96,13,4,20,0.00
2014-3-1,31.4,19.5,3.3,20.2,6.9,-7.5,74,58,37,30.48,30.13,13,2,13,0.00
2014-3-2,37.2,31.2,26.1,25.1,19.5,12.3,70,62,53,30.13,29.98,12,3,12,0.00
2014-3-3,26.0,17.3,8.6,13.7,2.4,-5.2,66,52,37,30.32,30.00,16,4,16,0.00
2014-3-4,26.5,16.6,2.7,9.7,0.5,-4.8,72,50,34,30.42,30.28,11,2,11,0.00
2014-3-5,25.4,21.2,13.4,19.0,13.1,4.7,89,71,53,30.51,30.26,13,2,13,0.00
2014-3-6,25.2,15.6,5.5,4.7,-4.0,-9.4,68,43,24,30.66,30.51,11,2,11,0.00
2014-3-7,34.6,24.2,7.2,23.0,13.1,-3.0,82,63,46,30.54,29.98,7,1,12,0.00
2014-3-8,49.4,38.3,26.6,28.9,25.8,20.2,88,62,41,29.98,29.74,16,3,16,0.00
2014-3-9,37.2,31.7,26.7,25.4,15.6,11.3,73,52,38,29.95,29.87,18,4,18,0.00
2014-3-10,39.6,33.1,26.7,28.8,22.2,11.7,78,64,51,29.91,29.63,12,2,12,0.00
2014-3-11,53.8,42.8,32.0,35.4,30.4,27.5,92,64,39,29.74,29.52,25,4,25,0.00
2014-3-12,45.4,39.4,35.5,36.5,32.3,27.9,97,77,60,29.74,29.03,10,2,11,0.48
2014-3-13,35.5,17.8,10.6,34.5,10.5,-1.3,96,74,47,29.99,29.02,33,8,33,0.05
2014-3-14,35.6,23.5,10.1,25.0,10.3,-1.0,74,58,37,30.22,29.94,16,3,17,0.00
2014-3-15,51.7,40.3,32.4,38.6,31.1,21.4,94,71,46,29.94,29.71,28,4,28,0.10
2014-3-16,33.9,26.1,20.7,21.9,9.7,3.0,66,50,33,30.22,29.91,20,6,24,0.00
2014-3-17,28.6,20.1,12.8,8.8,2.1,-3.6,63,45,31,30.20,30.07,12,2,12,0.00
2014-3-18,36.3,25.4,15.0,17.8,8.1,-1.3,71,48,31,30.38,30.18,8,2,8,0.00
2014-3-19,42.2,31.5,20.0,29.8,20.8,15.6,90,67,35,30.41,30.00,12,3,12,0.01
2014-3-20,46.5,37.7,31.6,39.3,31.8,23.2,97,81,52,30.00,29.65,28,4,28,0.02
2014-3-21,38.5,33.9,27.9,24.6,22.9,20.5,74,64,53,30.06,29.77,26,7,28,0.00
2014-3-22,51.7,36.2,23.9,39.6,25.4,18.4,85,66,44,30.08,29.71,41,5,41,0.01
2014-3-23,36.7,32.1,22.3,24.5,17.0,3.8,74,55,38,30.09,29.93,25,4,25,0.00
2014-3-24,28.7,20.9,12.2,6.8,1.8,-2.2,57,44,31,30.19,30.07,17,4,17,0.00
2014-3-25,34.3,25.0,11.8,18.3,10.6,6.3,83,56,37,30.17,29.92,14,2,14,0.00
2014-3-26,31.3,27.1,19.7,18.4,10.6,-1.4,68,51,35,30.07,29.67,43,9,43,0.00
2014-3-27,41.0,28.1,16.7,17.6,5.9,-1.7,56,39,26,30.36,30.06,18,4,18,0.00
2014-3-28,51.7,41.2,31.2,48.2,35.3,17.6,97,80,56,30.27,29.98,17,2,17,0.12
2014-3-29,50.5,43.2,37.0,48.2,39.9,36.2,97,88,71,30.25,29.97,11,5,19,0.73
2014-3-30,38.5,36.7,34.2,37.9,35.9,33.2,98,97,96,29.97,29.63,16,7,16,1.84
2014-3-31,37.4,34.7,32.8,33.5,31.9,29.1,97,90,79,30.04,29.71,21,6,21,0.74
2014-4-1,54.1,41.7,30.7,36.2,31.0,26.4,84,67,48,30.13,30.03,15,4,15,0.05
2014-4-2,56.5,43.1,31.7,37.6,32.0,23.3,86,66,43,30.14,30.03,12,2,12,0.00
2014-4-3,53.9,44.6,33.3,35.1,26.7,21.4,87,51,33,30.14,30.05,16,3,16,0.00
2014-4-4,48.1,39.5,34.1,33.4,30.4,24.8,94,70,54,30.16,29.87,15,3,15,0.00
2014-4-5,47.6,39.2,33.3,39.6,32.2,22.7,97,78,47,29.97,29.72,23,5,23,0.01
2014-4-6,54.4,41.1,29.4,27.3,22.5,18.6,77,51,25,30.22,29.97,14,3,15,0.15
2014-4-7,57.2,46.7,34.4,39.2,26.9,16.0,93,49,25,30.25,29.89,14,3,14,0.05
2014-4-8,63.2,50.5,41.2,56.4,45.5,33.0,98,84,55,29.90,29.33,20,3,24,0.40
2014-4-9,55.1,44.1,33.4,37.4,27.4,10.3,93,56,27,30.00,29.55,22,5,22,0.00
2014-4-10,59.4,44.6,29.4,34.5,23.6,11.7,66,45,23,30.17,30.00,18,3,18,0.00
2014-4-11,66.5,53.4,44.9,50.9,42.0,34.2,92,67,43,30.06,29.93,12,2,16,0.02
2014-4-12,66.0,53.6,42.3,45.2,37.0,29.7,95,59,27,30.23,29.98,16,3,16,0.04
2014-4-13,68.5,54.4,43.6,53.5,43.4,34.4,92,67,46,30.26,30.02,13,2,13,0.08
2014-4-14,73.2,63.4,57.0,57.8,54.3,51.2,87,73,53,30.03,29.90,21,4,21,0.00
2014-4-15,60.2,48.6,35.8,58.8,46.8,33.6,95,93,92,29.75,29.55,24,7,24,1.07
2014-4-16,39.6,33.0,26.4,33.6,22.3,16.8,94,66,42,30.63,29.74,24,6,24,0.29
2014-4-17,44.0,33.4,25.8,26.9,22.3,17.0,81,64,46,30.81,30.63,10,4,14,0.03
2014-4-18,44.9,36.3,27.0,32.9,29.0,23.8,88,76,58,30.67,30.26,9,2,9,0.00
2014-4-19,60.2,47.2,35.1,36.9,31.9,27.0,87,58,35,30.44,30.20,19,4,19,0.00
2014-4-20,56.2,45.7,34.8,29.9,24.2,17.8,72,45,24,30.52,30.35,11,2,11,0.00
2014-4-21,69.0,51.9,34.6,36.8,24.6,16.1,75,40,14,30.35,29.86,13,2,13,0.00
2014-4-22,72.5,58.2,46.7,50.2,42.6,36.7,90,59,32,29.86,29.48,15,2,15,0.01
2014-4-23,52.6,48.2,43.2,49.8,42.1,31.4,94,80,59,29.67,29.44,26,6,26,0.38
2014-4-24,54.5,45.7,37.9,31.8,23.9,17.6,64,43,30,29.97,29.67,28,9,28,0.00
2014-4-25,63.5,50.7,38.4,32.4,25.4,18.7,54,39,19,30.03,29.83,13,3,13,0.00
2014-4-26,48.2,43.1,40.3,43.4,38.9,28.4,96,86,47,29.88,29.77,7,1,7,0.50
2014-4-27,49.9,43.3,39.6,44.4,39.2,35.1,98,86,67,30.09,29.85,17,3,17,0.18
2014-4-28,59.4,48.1,39.1,41.1,37.3,34.2,83,68,46,30.23,30.01,14,5,14,0.00
2014-4-29,45.5,40.0,37.7,40.4,35.9,33.9,95,85,75,30.53,30.22,18,6,18,0.00
2014-4-30,43.3,39.4,36.9,39.9,37.6,34.7,97,93,86,30.54,30.15,13,4,13,0.86
2014-5-1,67.1,51.5,40.1,59.1,49.4,39.3,99,93,74,30.17,29.68,10,2,10,0.80
2014-5-2,64.1,55.8,45.7,53.8,43.0,37.0,92,65,39,29.83,29.68,17,3,17,0.01
2014-5-3,66.4,55.5,41.7,47.2,40.6,35.6,89,60,33,29.88,29.72,7,1,13,0.01
2014-5-4,58.6,51.5,46.4,45.5,40.5,35.4,84,67,45,29.73,29.57,28,7,28,0.01
2014-5-5,59.2,51.9,44.8,43.2,40.0,37.7,82,65,48,29.89,29.65,21,5,21,0.00
2014-5-6,61.4,51.6,42.4,38.9,34.7,27.0,84,55,35,30.07,29.86,23,4,23,0.00
2014-5-7,65.5,54.4,43.0,36.4,29.8,25.3,58,41,24,30.21,30.07,18,3,18,0.00
2014-5-8,64.7,55.3,45.4,53.8,44.3,31.8,89,67,43,30.20,30.09,12,1,12,0.00
2014-5-9,54.5,53.1,50.2,53.4,51.2,47.2,97,93,88,30.24,30.08,8,1,8,0.01
2014-5-10,77.8,65.1,54.2,64.6,60.3,52.2,98,86,54,30.09,29.76,19,2,19,0.21
2014-5-11,76.0,65.9,56.0,58.8,41.9,29.0,95,48,18,30.05,29.81,26,4,26,0.00
2014-5-12,84.2,69.5,51.4,56.7,44.5,36.9,74,45,23,30.12,29.98,17,2,17,0.00
2014-5-13,69.3,52.6,45.4,56.1,42.4,37.8,79,69,50,30.33,30.04,13,3,13,0.00
2014-5-14,73.8,57.6,43.4,56.2,44.8,37.1,83,65,36,30.34,30.25,11,1,11,0.00
2014-5-15,76.0,64.4,57.5,64.1,58.7,52.9,94,82,66,30.29,30.20,11,1,11,0.00
2014-5-16,65.8,63.6,62.9,63.7,62.5,60.8,98,96,87,30.08,29.95,14,3,14,0.54
2014-5-17,69.5,62.4,53.1,64.1,51.6,40.0,98,71,41,30.09,29.80,17,3,17,0.79
2014-5-18,67.5,57.0,46.6,46.0,37.7,28.7,71,51,26,30.13,30.03,13,4,13,0.00
2014-5-19,63.7,55.5,45.1,44.5,36.4,31.1,71,50,32,30.12,30.03,16,3,16,0.00
2014-5-20,73.4,62.2,52.4,43.3,39.1,34.5,70,44,28,30.06,29.94,13,3,16,0.00
2014-5-21,76.3,60.9,47.8,51.3,46.1,37.3,89,62,26,30.01,29.90,12,1,12,0.00
2014-5-22,62.2,55.3,52.0,55.4,51.9,46.4,96,88,74,29.95,29.86,7,0,7,0.31
2014-5-23,58.4,54.4,50.1,57.3,53.3,48.7,98,96,93,29.99,29.87,5,0,5,0.10
2014-5-24,64.3,54.9,49.0,54.3,50.4,47.9,97,86,62,30.07,29.95,7,1,7,0.09
2014-5-25,67.5,57.6,48.4,60.5,53.5,47.0,97,87,68,30.10,30.02,14,1,14,0.29
2014-5-26,78.0,65.4,52.8,59.0,55.0,50.3,94,71,49,30.04,29.83,22,3,22,0.01
2014-5-27,75.1,62.2,46.9,63.3,54.3,45.5,96,76,59,29.94,29.81,14,2,14,0.09
2014-5-28,48.1,46.0,42.7,47.5,45.1,41.1,98,97,94,30.24,29.90,10,2,10,0.09
2014-5-29,64.9,52.6,39.1,48.7,42.6,37.5,97,72,40,30.27,30.16,5,1,7,0.00
2014-5-30,68.8,56.8,46.5,57.0,49.3,43.9,95,78,50,30.17,29.99,9,1,10,0.24
2014-5-31,63.4,55.2,47.0,52.9,48.6,37.7,96,80,54,30.32,30.06,9,1,9,0.00
2014-6-1,74.2,61.9,46.3,49.2,44.2,37.2,87,56,30,30.36,30.24,7,1,7,0.00
2014-6-2,79.8,66.8,53.1,56.7,50.1,40.0,76,57,36,30.25,30.01,14,2,14,0.00
2014-6-3,82.4,67.7,56.1,65.8,57.7,52.1,91,72,51,30.03,29.86,18,1,18,0.00
2014-6-4,67.8,61.3,54.0,63.4,57.9,51.7,96,89,79,29.90,29.76,5,0,5,0.14
2014-6-5,62.3,59.4,56.4,60.5,57.9,54.6,97,95,89,29.79,29.66,9,0,9,0.30
2014-6-6,70.6,61.9,54.9,58.0,53.7,51.9,95,76,54,29.90,29.72,20,3,20,0.00
2014-6-7,79.8,68.0,56.3,59.6,55.2,51.9,86,66,41,29.97,29.89,12,2,12,0.00
2014-6-8,82.2,70.8,57.7,60.7,55.6,50.9,92,62,35,29.96,29.86,12,1,12,0.00
2014-6-9,75.2,65.7,59.8,61.7,57.6,54.1,91,76,55,30.00,29.90,9,1,9,0.00
2014-6-10,78.5,68.0,61.1,68.8,63.3,59.2,96,86,66,29.99,29.94,7,0,7,0.01
2014-6-11,68.0,63.0,57.6,56.8,53.1,49.6,87,70,58,30.18,30.11,8,1,8,0.00
2014-6-12,64.0,60.0,55.8,62.8,56.9,50.1,97,90,74,30.17,30.05,4,0,4,0.02
2014-6-13,61.9,60.1,58.4,61.3,59.3,57.8,98,97,95,30.05,29.80,5,0,5,0.28
2014-6-14,73.1,63.3,55.2,65.2,58.5,50.1,99,85,62,29.94,29.81,12,2,16,0.04
2014-6-15,76.2,64.4,53.2,59.3,53.2,46.4,89,69,49,30.09,29.93,17,3,17,0.00
2014-6-16,78.7,67.6,56.9,55.3,49.6,44.7,74,54,32,30.16,30.03,7,1,9,0.00
2014-6-17,84.8,72.1,60.4,71.8,62.8,53.5,91,74,52,30.07,29.86,10,1,10,0.00
2014-6-18,72.4,68.3,66.0,67.4,65.5,64.2,94,91,82,29.86,29.73,27,2,27,0.05
2014-6-23,78.8,69.9,54.0,61.0,55.3,48.8,96,61,41,30.18,30.09,7,1,9,0.00
2014-6-24,79.5,67.8,56.9,62.5,57.3,49.0,92,71,53,30.18,30.01,12,1,12,0.00
2014-6-25,84.5,72.7,61.4,72.0,65.0,55.2,92,78,63,30.02,29.85,16,2,16,0.00
2014-6-26,80.5,70.6,61.9,71.0,67.0,59.5,96,89,66,30.01,29.78,8,1,8,0.48
2014-6-27,76.7,66.9,57.5,61.3,55.5,50.5,94,69,44,30.22,30.00,8,0,8,0.00
2014-6-28,82.5,70.4,57.3,62.9,56.9,44.6,90,66,28,30.28,30.22,8,1,8,0.00
2014-6-29,82.0,71.2,61.6,66.4,59.8,55.5,83,68,47,30.27,30.10,11,1,11,0.00
2014-6-30,64.4,62.2,60.5,57.4,54.3,51.8,80,75,70,30.11,30.04,10,2,10,0.00
2014-7-2,88.3,78.6,68.6,77.8,71.9,66.5,95,81,66,29.93,29.84,8,1,11,0.14
2014-7-3,87.5,76.5,67.1,76.4,71.4,65.2,98,85,67,30.03,29.87,15,1,15,0.56
2014-7-4,67.1,65.7,64.8,65.6,64.5,63.6,97,96,94,29.98,29.93,8,0,8,0.00
2014-7-7,84.3,76.2,64.8,70.7,67.5,61.5,94,75,58,29.85,29.69,14,1,14,0.06
2014-7-8,85.7,75.6,66.8,72.3,68.6,64.4,95,80,60,29.81,29.67,16,1,16,0.04
2014-7-9,83.7,75.4,67.0,69.2,65.5,61.8,93,73,50,29.95,29.65,17,2,17,0.00
2014-7-10,76.5,68.5,63.0,62.2,59.6,56.3,93,75,53,30.11,29.93,9,1,9,0.00
2014-7-15,81.7,75.2,69.0,77.2,72.4,67.1,97,91,74,29.83,29.75,16,1,16,0.48
2014-7-16,73.9,70.3,66.5,70.1,67.5,59.3,98,91,79,29.87,29.74,8,1,8,0.02
2014-7-17,78.5,68.8,61.7,63.5,58.6,55.6,87,71,48,30.09,29.87,10,1,10,0.00
2014-7-18,77.5,67.3,58.6,62.0,57.0,51.8,91,72,43,30.24,30.09,7,1,7,0.00
2014-7-19,73.9,66.3,58.2,64.8,60.2,55.9,94,82,60,30.28,30.22,3,0,5,0.00
2014-7-20,76.3,66.8,58.7,61.2,57.9,53.0,96,76,46,30.23,30.13,3,0,6,0.00
2014-7-22,86.3,79.8,64.3,70.6,67.5,62.5,94,67,48,30.16,30.00,10,1,10,0.00
2014-7-23,88.4,76.0,65.9,74.7,69.4,64.1,95,81,59,30.00,29.74,20,1,20,0.09
2014-7-24,77.2,71.0,66.5,67.9,63.5,56.3,96,78,56,29.92,29.74,8,1,8,0.01
2014-7-25,77.8,67.6,56.6,61.7,57.0,51.8,87,70,52,30.01,29.91,10,1,10,0.00
2014-7-26,80.3,69.3,58.7,63.2,59.6,55.6,95,74,45,29.99,29.89,15,1,15,0.00
2014-7-27,76.5,69.2,63.6,71.6,66.8,61.2,97,92,83,29.91,29.65,7,0,7,1.08
2014-7-28,80.0,69.1,63.3,71.8,66.0,61.8,98,90,71,29.69,29.44,8,1,14,0.22
2014-7-29,73.3,65.2,58.9,62.3,57.9,54.9,93,78,58,29.96,29.57,15,2,15,0.00
2014-7-30,75.1,65.3,56.9,59.4,55.6,50.6,91,73,45,30.07,29.96,9,1,9,0.00
2014-7-31,78.0,67.1,55.8,63.2,58.9,53.7,97,77,55,30.17,30.06,12,0,12,0.00
2014-8-1,81.6,70.8,63.2,71.0,65.4,60.9,96,84,61,30.22,30.17,5,1,9,0.04
2014-8-2,69.3,65.5,61.2,65.6,62.4,57.8,97,90,76,30.23,30.13,7,0,7,0.06
2014-8-3,74.2,65.4,58.1,65.2,60.6,56.0,96,85,68,30.15,30.05,6,0,6,0.01
2014-8-4,81.7,71.1,63.1,68.7,65.0,61.3,96,82,60,30.06,30.00,11,1,11,0.00
2014-8-5,84.0,73.7,65.2,67.1,63.9,58.2,96,74,44,30.04,29.90,14,1,14,0.00
2014-8-6,77.8,70.5,65.3,66.2,60.8,54.5,87,72,53,29.90,29.80,12,2,12,0.00
2014-8-7,76.3,65.2,58.7,61.5,56.2,51.9,88,73,50,29.97,29.86,11,2,11,0.09
2014-8-8,78.3,66.7,56.5,61.1,56.5,52.8,89,71,45,30.06,29.96,12,2,12,0.00
2014-8-9,81.4,70.3,61.6,62.1,58.3,54.9,85,67,42,30.11,30.03,10,1,10,0.00
2014-8-10,82.8,71.6,60.3,64.0,57.8,51.4,89,65,36,30.15,30.09,7,0,7,0.00
2014-8-11,85.2,71.2,61.2,65.5,60.2,54.0,90,71,37,30.16,30.09,8,0,8,0.00
2014-8-12,78.0,69.1,61.2,65.3,61.7,55.8,96,79,51,30.13,30.00,14,1,14,0.00
2014-8-13,68.5,66.0,62.3,66.7,64.6,61.3,98,95,85,30.00,29.62,9,2,15,2.80
2014-8-14,70.5,62.5,55.3,61.3,54.6,49.9,97,77,50,29.89,29.68,18,3,18,0.00
2014-8-15,67.2,59.6,54.3,55.8,53.7,51.6,95,82,59,29.96,29.84,11,1,11,0.06
2014-8-16,72.8,63.0,53.7,57.5,54.0,51.3,93,74,51,30.01,29.92,14,1,14,0.01
2014-8-17,75.5,66.0,58.2,63.4,58.6,55.1,96,78,61,29.92,29.79,19,2,19,0.02
2014-8-18,73.1,63.9,55.8,58.3,53.3,49.9,89,70,47,29.91,29.81,11,2,17,0.00
2014-8-19,75.2,63.8,53.5,59.1,53.5,48.4,92,71,47,29.97,29.88,8,1,8,0.00
2014-8-20,79.1,67.5,57.7,62.6,57.7,50.9,97,73,49,30.06,29.97,6,0,6,0.00
2014-8-21,72.2,64.7,57.8,62.1,58.1,53.6,94,80,61,30.10,30.05,4,0,4,0.10
2014-8-22,67.8,62.9,59.0,63.5,60.0,58.0,97,91,78,30.12,30.07,5,0,5,0.01
2014-8-23,69.9,62.9,55.8,60.4,57.7,53.8,94,84,69,30.15,30.09,7,0,7,0.00
2014-8-24,76.9,64.9,54.6,62.4,57.4,52.7,97,79,53,30.17,30.12,6,0,6,0.00
2014-8-25,84.8,73.0,63.2,65.7,61.3,57.7,90,69,45,30.18,30.10,8,1,8,0.00
2014-8-26,85.3,73.5,63.5,68.2,63.4,58.3,94,73,43,30.16,30.05,10,1,10,0.00
2014-8-27,85.0,73.0,63.9,71.6,66.2,60.9,96,80,63,30.06,29.85,12,2,12,1.09
2014-8-28,75.4,67.6,58.7,67.3,58.3,51.2,96,74,52,30.02,29.82,8,2,11,0.01
2014-8-29,72.5,63.0,54.6,58.9,53.7,49.9,91,73,53,30.28,30.01,8,1,8,0.00
2014-8-30,74.3,63.4,53.9,61.6,57.3,52.2,97,82,57,30.31,30.14,8,0,8,0.00
2014-8-31,79.5,71.4,63.3,72.9,67.9,61.2,96,89,78,30.14,29.95,13,1,13,2.28
2014-9-1,82.5,74.4,68.3,73.2,69.6,67.4,98,86,64,30.00,29.91,6,1,8,0.01
2014-9-2,85.7,76.3,68.6,76.5,71.9,67.7,98,87,65,29.94,29.74,8,1,16,0.55
2014-9-3,77.3,70.5,62.5,70.9,62.5,58.8,97,77,54,30.10,29.72,17,2,17,0.00
2014-9-4,80.5,69.1,57.7,64.9,60.2,54.8,93,75,50,30.21,30.10,11,1,11,0.00
2014-9-5,83.3,73.2,64.3,73.2,67.3,61.0,93,82,67,30.18,29.98,11,1,11,0.00
2014-9-6,85.5,76.3,66.4,75.4,70.9,63.1,93,84,66,29.99,29.75,16,1,16,0.07
2014-9-7,72.6,65.6,59.8,63.3,56.8,48.8,95,75,47,30.22,29.92,8,1,9,0.06
2014-9-8,71.3,62.2,55.0,56.2,52.1,48.1,89,71,51,30.38,30.22,7,0,7,0.00
2014-9-9,67.3,59.9,54.6,56.0,52.5,47.3,90,77,57,30.36,30.21,5,0,5,0.00
2014-9-10,69.2,61.0,56.4,60.3,56.8,53.8,97,87,68,30.21,30.05,5,0,5,0.00
2014-9-11,72.8,66.2,60.1,68.0,62.8,54.9,96,89,78,30.06,29.80,12,1,13,0.01
2014-9-12,68.3,59.5,51.2,55.2,51.5,47.4,93,76,57,30.25,29.92,12,1,12,0.00
2014-9-13,60.2,54.3,48.3,55.6,50.7,44.0,97,88,80,30.30,30.13,8,0,8,0.37
2014-9-14,61.4,53.5,46.8,54.5,47.5,44.6,97,81,58,30.26,30.14,13,2,13,0.00
2014-9-15,61.7,52.4,44.6,48.5,45.1,41.2,92,78,54,30.26,30.12,8,0,8,0.00
2014-9-16,63.5,55.4,48.1,56.3,51.7,46.2,95,88,70,30.13,29.98,8,0,9,0.00
2014-9-17,64.8,56.1,48.6,52.3,48.2,43.7,94,76,49,30.05,29.97,12,2,12,0.01
2014-9-18,68.7,57.7,46.8,55.3,49.7,45.2,95,76,54,30.16,29.96,10,1,10,0.00
2014-9-19,55.8,48.3,40.3,45.7,37.7,32.4,86,68,43,30.44,30.16,9,0,9,0.00
2014-9-20,67.8,54.3,39.0,57.5,49.1,36.0,96,83,68,30.42,30.11,12,1,12,0.00
2014-9-21,75.6,66.4,56.7,70.6,64.7,55.0,98,94,81,30.12,29.57,9,0,9,1.60
2014-9-22,66.8,58.6,46.3,65.9,55.1,40.2,97,88,70,30.10,29.55,14,2,15,0.00
2014-9-23,64.1,52.6,40.5,52.4,45.2,38.5,96,77,54,30.46,30.10,15,1,15,0.00
2014-9-24,65.3,57.5,51.2,54.8,51.4,48.7,93,81,60,30.64,30.46,5,0,5,0.00
2014-9-25,57.5,54.2,50.2,52.2,50.4,48.6,95,87,76,30.56,30.27,4,0,4,0.00
2014-9-26,69.9,60.6,53.7,58.8,53.7,47.2,94,79,61,30.27,30.17,6,0,6,0.00
2014-9-27,77.4,67.1,58.0,64.9,58.7,53.2,90,75,52,30.21,30.15,7,1,7,0.00
2014-9-28,78.9,67.6,57.5,66.8,61.7,55.8,96,83,60,30.17,30.00,7,1,11,0.00
2014-9-29,72.8,63.7,55.5,64.9,59.9,54.1,97,88,72,30.03,29.94,6,0,6,0.00
2014-9-30,55.9,54.9,53.6,55.1,54.0,52.5,98,97,95,30.05,29.99,4,0,6,0.29
2014-10-1,55.3,54.7,54.3,54.8,54.1,53.8,99,98,98,30.13,30.03,8,1,8,0.61
2014-10-2,54.9,53.0,48.2,54.1,52.2,46.2,99,97,93,30.20,30.11,6,1,8,0.44
2014-10-3,60.7,53.1,47.7,53.1,49.1,45.5,96,87,72,30.17,29.92,6,0,7,0.00
2014-10-4,61.1,55.4,51.6,60.8,54.8,50.5,99,98,96,29.92,29.55,15,1,15,0.45
2014-10-5,56.0,48.6,41.1,55.0,41.9,36.0,97,79,49,29.98,29.59,14,2,15,0.00
2014-10-6,62.7,50.1,38.3,50.1,43.6,36.5,96,80,54,30.16,29.98,13,1,13,0.00
2014-10-7,69.6,59.7,47.8,60.5,54.9,46.3,98,85,64,30.15,29.98,13,1,13,0.00
2014-10-8,68.0,61.4,52.0,60.0,52.8,45.5,96,74,52,29.98,29.73,19,2,19,0.02
2014-10-9,60.8,51.2,41.6,45.9,40.7,36.7,92,69,46,30.03,29.89,20,2,20,0.00
2014-10-10,57.6,49.7,41.7,43.5,41.0,38.2,92,73,50,30.16,30.03,15,2,15,0.00
2014-10-11,48.7,45.5,43.7,46.2,43.1,40.2,96,91,79,30.16,30.09,6,0,6,0.19
2014-10-12,57.6,47.9,41.1,43.6,40.9,37.8,96,79,48,30.33,30.16,9,1,9,0.00
2014-10-13,59.3,50.3,40.0,53.5,46.6,37.8,97,87,76,30.38,30.28,8,0,8,0.00
2014-10-14,72.6,64.0,55.3,65.0,60.0,52.9,98,88,70,30.28,30.17,11,1,11,0.00
2014-10-15,74.8,70.2,65.1,67.8,66.0,63.9,96,87,75,30.12,29.95,11,1,11,0.00
2014-10-16,68.3,65.9,58.5,67.7,65.0,57.6,98,97,95,29.95,29.66,10,1,10,2.79
2014-10-17,67.2,60.2,56.2,58.0,55.5,51.7,98,86,60,29.70,29.61,10,1,19,0.00
2014-10-18,66.3,57.6,52.0,59.7,54.2,48.2,97,89,73,29.68,29.52,17,2,17,0.09
2014-10-19,51.9,46.5,37.4,48.4,37.9,27.8,89,72,56,29.99,29.62,13,4,22,0.00
2014-10-20,53.2,42.2,29.4,40.8,33.6,26.4,92,73,51,30.08,29.98,16,1,16,0.00
2014-10-21,61.0,51.0,42.8,54.1,47.6,40.6,95,88,76,30.02,29.91,7,0,9,0.00
2014-10-22,51.1,47.7,45.7,49.6,46.8,44.9,97,97,95,30.03,29.83,18,4,18,0.63
2014-10-23,50.6,47.6,45.1,49.7,46.8,44.3,97,97,96,29.88,29.64,19,5,19,1.34
2014-10-24,50.7,47.5,45.2,47.5,44.6,42.2,97,90,80,29.78,29.70,15,4,15,0.10
2014-10-25,61.0,50.6,42.4,47.0,43.2,38.9,89,77,51,29.80,29.52,13,3,13,0.00
2014-10-26,53.9,49.3,44.4,46.8,41.5,38.5,87,75,59,29.74,29.46,22,4,22,0.00
2014-10-27,57.2,49.1,43.1,41.9,39.9,38.3,86,71,54,30.05,29.73,23,3,23,0.00
2014-10-28,67.0,52.7,39.6,56.4,47.7,37.1,95,84,64,30.08,29.94,8,0,8,0.00
2014-10-29,70.5,56.7,47.0,61.2,52.7,44.3,98,87,65,29.94,29.79,20,2,20,0.10
2014-10-30,52.1,46.1,41.2,44.3,39.4,37.0,92,78,59,30.01,29.90,14,3,14,0.00
2014-10-31,50.2,44.5,40.5,40.6,37.7,34.8,89,77,67,30.06,29.98,7,2,7,0.00
2014-11-1,43.8,40.0,36.4,39.7,36.4,33.0,95,87,73,29.98,29.82,21,4,21,0.52
2014-11-2,39.9,37.4,35.1,34.6,27.0,15.5,92,68,42,29.87,29.68,32,8,32,0.00
2014-11-3,49.2,40.6,30.3,32.5,23.0,14.5,66,50,31,30.10,29.87,21,5,21,0.00
2014-11-4,61.3,51.2,42.7,40.8,32.6,25.9,72,50,34,30.16,30.01,11,1,11,0.00
2014-11-5,62.2,51.1,40.7,45.2,40.3,35.7,85,68,45,30.14,29.98,20,2,20,0.00
2014-11-6,46.2,44.1,41.5,43.9,40.2,34.4,97,87,69,30.14,29.53,6,1,6,0.38
2014-11-7,44.7,40.7,35.3,43.9,35.6,29.0,97,82,66,29.83,29.50,26,5,26,0.00
2014-11-8,44.5,36.8,30.4,29.9,26.1,22.7,79,66,48,30.00,29.83,15,2,15,0.00
2014-11-9,51.0,42.3,36.1,36.3,33.4,29.9,85,71,53,30.03,29.89,10,1,10,0.00
2014-11-10,56.4,44.3,34.2,36.2,33.8,31.0,92,69,42,30.22,30.03,9,1,9,0.00
2014-11-11,60.1,49.6,38.9,51.9,45.3,35.4,96,86,66,30.21,29.98,10,1,10,0.00
2014-11-12,62.9,52.3,38.5,55.2,46.9,28.8,97,83,61,30.03,29.85,16,2,16,0.00
2014-11-13,46.7,39.2,29.6,32.5,28.5,25.8,92,67,47,30.10,29.97,7,2,10,0.06
2014-11-14,37.6,32.8,27.1,31.5,26.8,20.7,94,79,54,30.13,29.92,13,3,18,0.11
2014-11-15,34.9,28.8,24.1,22.9,19.3,16.4,88,69,49,30.37,30.12,16,2,16,0.00
2014-11-16,38.7,31.8,23.1,27.9,23.6,17.4,85,72,53,30.41,30.14,9,1,9,0.00
2014-11-17,47.8,36.7,33.2,47.3,34.8,27.4,98,93,69,30.15,29.45,15,2,15,1.50
2014-11-18,40.8,30.1,21.1,40.0,19.1,6.9,97,65,42,29.95,29.49,23,5,23,0.00
2014-11-19,30.5,24.0,17.9,14.6,10.0,6.9,65,55,43,30.18,29.95,18,4,21,0.00
2014-11-20,42.2,33.3,26.7,24.2,19.4,13.2,69,57,41,30.08,29.77,25,4,25,0.00
2014-11-21,30.0,25.6,20.9,17.7,12.9,8.4,69,58,47,30.45,29.93,24,5,24,0.00
2014-11-22,39.7,30.6,18.9,24.3,14.4,9.5,74,53,30,30.46,30.09,23,3,23,0.00
2014-11-23,55.9,44.6,36.6,41.6,33.0,23.5,78,64,53,30.18,30.09,20,2,20,0.01
2014-11-24,62.6,54.7,39.6,60.9,52.2,32.9,98,92,77,30.09,29.58,18,2,18,0.72
2014-11-25,61.4,52.3,38.7,56.5,40.6,28.9,93,66,41,30.14,29.71,23,2,23,0.00
2014-11-26,40.4,35.1,30.8,32.7,30.8,29.5,96,85,67,30.21,29.72,17,3,17,0.05
2014-11-27,33.0,30.4,27.3,30.6,28.5,25.2,97,93,85,30.04,29.75,7,3,13,0.08
2014-11-28,31.7,26.4,19.8,25.5,22.4,16.1,93,85,72,30.25,30.01,20,3,20,0.00
2014-11-29,30.6,23.1,14.6,23.7,18.2,12.1,92,82,65,30.37,30.24,8,1,8,0.00
2014-11-30,50.7,41.0,28.6,40.5,35.5,23.7,94,81,62,30.28,30.06,12,1,12,0.82
2014-12-1,56.2,45.0,36.5,46.4,38.6,27.7,90,78,69,30.45,30.04,14,3,14,0.02
2014-12-2,36.5,31.2,28.7,31.2,24.2,18.9,96,76,60,30.71,30.41,13,3,13,0.00
2014-12-3,34.7,33.3,32.2,33.9,32.4,31.2,97,97,96,30.41,30.13,6,1,6,0.23
2014-12-5,36.1,33.8,31.7,31.3,27.9,24.0,95,79,65,30.64,30.44,9,2,9,0.25
2014-12-6,37.9,35.7,32.6,37.1,34.8,31.3,97,97,96,30.45,30.16,12,2,12,1.12
2014-12-7,34.9,29.0,16.5,33.9,16.8,3.2,96,62,38,30.70,30.25,19,6,19,0.03
2014-12-8,22.4,18.1,13.5,20.3,11.3,2.5,92,75,57,30.78,30.54,11,4,11,0.00
2014-12-9,38.2,32.4,22.4,37.4,31.4,20.4,97,96,92,30.54,29.57,21,7,21,1.23
2014-12-10,37.7,35.7,33.3,36.7,34.9,32.4,97,97,96,29.61,29.46,15,4,15,0.22
2014-12-11,33.2,30.3,27.4,32.4,28.9,25.3,97,95,92,29.82,29.46,16,3,16,0.01
2014-12-12,32.8,29.1,26.4,28.5,26.0,24.5,93,88,82,29.93,29.81,16,5,18,0.01
2014-12-13,36.5,31.3,28.3,29.0,26.6,24.9,89,83,73,29.91,29.82,16,6,22,0.00
2014-12-14,39.2,33.4,29.4,32.0,28.9,25.2,88,83,74,29.94,29.82,18,5,18,0.01
2014-12-15,40.6,33.9,28.6,31.4,28.9,26.5,92,82,69,30.17,29.93,11,2,14,0.00
2014-12-16,36.1,32.3,26.4,35.3,30.8,24.9,97,94,91,30.18,29.94,5,0,6,0.15
2014-12-17,45.3,39.9,35.7,42.2,37.8,31.6,98,92,84,29.95,29.74,19,4,19,0.36
2014-12-18,37.6,35.1,32.4,31.8,29.9,27.9,93,81,74,29.90,29.72,25,5,25,0.02
2014-12-19,32.5,30.2,24.8,28.0,24.1,20.4,84,78,73,30.17,29.90,16,4,16,0.00
2014-12-20,32.8,28.1,23.6,26.1,22.8,19.4,89,81,68,30.33,30.17,8,2,8,0.00
2014-12-21,30.6,29.2,27.3,28.5,27.0,25.3,93,91,88,30.39,30.30,8,2,8,0.00
2014-12-22,37.0,33.1,30.0,34.6,30.8,27.0,97,91,85,30.42,30.29,7,2,7,0.11
2014-12-23,41.1,38.4,35.4,40.6,37.8,34.6,98,98,97,30.30,30.16,10,4,10,0.11
2014-12-24,43.7,38.7,37.1,42.8,38.2,36.6,99,98,98,30.16,29.57,10,3,10,0.54
2014-12-25,58.7,48.9,39.5,58.4,42.0,30.5,99,79,53,29.98,29.48,26,6,30,0.10
2014-12-26,45.1,38.5,32.5,32.9,30.3,27.8,85,73,61,30.19,29.98,15,3,17,0.00
2014-12-27,47.9,38.1,29.7,36.2,32.1,26.9,91,79,63,30.25,30.03,16,2,16,0.00
2014-12-28,46.6,41.8,34.0,42.8,35.4,26.5,92,78,70,30.03,29.80,23,4,23,0.06
2014-12-29,36.6,31.6,26.8,26.9,21.1,14.4,88,66,50,30.24,30.01,17,3,17,0.00
2014-12-30,26.7,21.7,15.2,15.0,7.0,-4.8,72,54,26,30.38,30.23,15,2,15,0.00
2014-12-31,25.2,18.4,11.8,11.6,7.7,5.2,81,64,45,30.34,30.22,18,2,18,0.00
2015-1-1,30.2,29.8,29.6,17.1,16.5,15.8,58,57,56,29.96,29.95,14,4,14,0.00
2015-1-2,36.3,30.8,26.3,22.1,18.0,13.6,67,59,50,30.47,29.96,16,4,24,0.00